Time;durP1;ratioP1;P1;durP2;ratioP2;P2;SDS_P1;SDS_P2;PMS_P1;PMS_P2;Temp;Humidity;BMP_temperature;BMP_pressure;BME280_temperature;BME280_humidity;BME280_pressure;Samples;Min_cycle;Max_cycle;Signal;HPM_P1;HPM_P2
2022/11/09 00:00:47;;;;;;;;;;;12.10;99.90;;;;;;5024918;28;19995;-64
2022/11/09 00:03:13;;;;;;;;;;;12.30;99.90;;;;;;5029180;28;20013;-63
2022/11/09 00:05:38;;;;;;;;;;;12.40;99.90;;;;;;5024453;28;20406;-63
2022/11/09 00:08:05;;;;;;;;;;;12.60;99.90;;;;;;5030895;28;19917;-62
2022/11/09 00:10:31;;;;;;;;;;;12.60;99.90;;;;;;5023161;28;19917;-63
2022/11/09 00:12:57;;;;;;;;;;;12.60;99.90;;;;;;5031106;28;20281;-63
2022/11/09 00:15:22;;;;;;;;;;;12.60;99.90;;;;;;5032040;28;19943;-64
2022/11/09 00:17:48;;;;;;;;;;;12.60;99.90;;;;;;5029157;28;19975;-63
2022/11/09 00:20:13;;;;;;;;;;;12.60;99.90;;;;;;5019505;28;19929;-62
2022/11/09 00:22:39;;;;;;;;;;;12.50;99.90;;;;;;5028507;28;19913;-64
2022/11/09 00:25:05;;;;;;;;;;;12.50;99.90;;;;;;5019305;28;19917;-63
2022/11/09 00:27:30;;;;;;;;;;;12.40;99.90;;;;;;5028984;28;20020;-63
2022/11/09 00:29:56;;;;;;;;;;;12.40;99.90;;;;;;5027285;28;20004;-62
2022/11/09 00:32:21;;;;;;;;;;;12.20;99.90;;;;;;5029980;28;19921;-62
2022/11/09 00:34:47;;;;;;;;;;;12.00;99.90;;;;;;5015872;28;19922;-62
2022/11/09 00:37:13;;;;;;;;;;;12.00;99.90;;;;;;5028856;28;20443;-63
2022/11/09 00:39:38;;;;;;;;;;;12.00;99.90;;;;;;5028609;28;20372;-63
2022/11/09 00:42:06;;;;;;;;;;;11.80;99.90;;;;;;5025826;28;20360;-63
2022/11/09 00:44:31;;;;;;;;;;;11.70;99.90;;;;;;5025398;28;19913;-62
2022/11/09 00:46:57;;;;;;;;;;;11.90;99.90;;;;;;5019328;28;19921;-62
2022/11/09 00:49:22;;;;;;;;;;;12.10;99.90;;;;;;5030329;28;19913;-62
2022/11/09 00:51:48;;;;;;;;;;;12.30;99.90;;;;;;5027499;28;19945;-62
2022/11/09 00:54:13;;;;;;;;;;;12.40;99.90;;;;;;5030742;28;19913;-61
2022/11/09 00:56:39;;;;;;;;;;;12.40;99.90;;;;;;5023438;28;19922;-63
2022/11/09 00:59:04;;;;;;;;;;;12.40;99.90;;;;;;5030325;28;20316;-62
2022/11/09 01:01:30;;;;;;;;;;;12.50;99.90;;;;;;5025949;28;20004;-62
2022/11/09 01:03:56;;;;;;;;;;;12.50;99.90;;;;;;5030630;28;19913;-62
2022/11/09 01:06:23;;;;;;;;;;;12.40;99.90;;;;;;5031155;28;19913;-62
2022/11/09 01:08:49;;;;;;;;;;;12.40;99.90;;;;;;5030585;28;19924;-62
2022/11/09 01:11:15;;;;;;;;;;;12.50;99.90;;;;;;5024613;28;19980;-63
2022/11/09 01:13:41;;;;;;;;;;;12.60;99.90;;;;;;5024294;28;19913;-63
2022/11/09 01:16:08;;;;;;;;;;;12.70;99.90;;;;;;5031048;28;19974;-62
2022/11/09 01:18:34;;;;;;;;;;;12.70;99.90;;;;;;5028484;28;19960;-60
2022/11/09 01:21:01;;;;;;;;;;;12.70;99.90;;;;;;5021684;28;19979;-61
2022/11/09 01:23:26;;;;;;;;;;;12.70;99.90;;;;;;5028628;28;19913;-62
2022/11/09 01:26:02;;;;;;;;;;;12.50;99.90;;;;;;5029582;28;19924;-62
2022/11/09 01:28:28;;;;;;;;;;;12.40;99.90;;;;;;5028891;28;20071;-62
2022/11/09 01:31:31;;;;;;;;;;;12.30;99.90;;;;;;5030055;28;20720;-62
2022/11/09 01:33:57;;;;;;;;;;;12.40;99.90;;;;;;5024591;28;19973;-61
2022/11/09 01:36:23;;;;;;;;;;;12.30;99.90;;;;;;5030278;28;19925;-63
2022/11/09 01:38:49;;;;;;;;;;;12.30;99.90;;;;;;5030585;28;19971;-60
2022/11/09 01:41:25;;;;;;;;;;;12.40;99.90;;;;;;5025838;28;19917;-61
2022/11/09 01:44:09;;;;;;;;;;;12.30;99.90;;;;;;5026152;28;19985;-60
2022/11/09 01:46:38;;;;;;;;;;;12.30;99.90;;;;;;5027791;28;19931;-60
2022/11/09 01:49:07;;;;;;;;;;;12.40;99.90;;;;;;5030236;28;19917;-61
2022/11/09 01:51:37;;;;;;;;;;;12.50;99.90;;;;;;5027655;28;19913;-61
2022/11/09 01:54:05;;;;;;;;;;;12.50;99.90;;;;;;5028671;28;20004;-61
2022/11/09 01:56:31;;;;;;;;;;;12.50;99.90;;;;;;5027724;28;20284;-61
2022/11/09 01:58:59;;;;;;;;;;;12.50;99.90;;;;;;5029888;28;20385;-61
2022/11/09 02:01:24;;;;;;;;;;;12.60;99.90;;;;;;5027372;28;19917;-61
2022/11/09 02:03:54;;;;;;;;;;;12.70;99.90;;;;;;5021808;28;19928;-61
2022/11/09 02:06:21;;;;;;;;;;;12.70;99.90;;;;;;5030104;28;20425;-61
2022/11/09 02:08:47;;;;;;;;;;;12.80;99.90;;;;;;5028473;28;20004;-61
2022/11/09 02:11:15;;;;;;;;;;;12.80;99.90;;;;;;5026300;28;20000;-61
2022/11/09 02:13:42;;;;;;;;;;;13.00;99.90;;;;;;5027316;28;19913;-61
2022/11/09 02:16:09;;;;;;;;;;;13.10;99.90;;;;;;5029888;28;19967;-60
2022/11/09 02:18:35;;;;;;;;;;;13.10;99.90;;;;;;5028357;28;19913;-60
2022/11/09 02:21:00;;;;;;;;;;;13.20;99.90;;;;;;5028647;28;19913;-60
2022/11/09 02:23:26;;;;;;;;;;;13.20;99.90;;;;;;5026127;28;20365;-62
2022/11/09 02:25:58;;;;;;;;;;;13.20;99.90;;;;;;5028349;28;20004;-64
2022/11/09 02:28:24;;;;;;;;;;;13.20;99.90;;;;;;5029355;28;19913;-61
2022/11/09 02:30:51;;;;;;;;;;;13.10;99.90;;;;;;5029011;28;19921;-61
2022/11/09 02:33:17;;;;;;;;;;;13.00;99.90;;;;;;5028958;28;19913;-62
2022/11/09 02:35:43;;;;;;;;;;;12.90;99.90;;;;;;5027593;28;19921;-62
2022/11/09 02:38:09;;;;;;;;;;;12.90;99.90;;;;;;5029994;28;20011;-62
2022/11/09 02:40:37;;;;;;;;;;;12.80;99.90;;;;;;5027241;28;20019;-61
2022/11/09 02:43:03;;;;;;;;;;;12.70;99.90;;;;;;5028158;28;19913;-61
2022/11/09 02:45:29;;;;;;;;;;;12.70;99.90;;;;;;5026717;28;19925;-62
2022/11/09 02:47:55;;;;;;;;;;;12.70;99.90;;;;;;5029791;28;19913;-61
2022/11/09 02:50:20;;;;;;;;;;;12.70;99.90;;;;;;5028665;28;19913;-61
2022/11/09 02:52:46;;;;;;;;;;;12.60;99.90;;;;;;5028084;28;19914;-61
2022/11/09 02:55:11;;;;;;;;;;;12.60;99.90;;;;;;5021556;28;19954;-61
2022/11/09 02:57:37;;;;;;;;;;;12.60;99.90;;;;;;5027508;28;19936;-61
2022/11/09 03:00:03;;;;;;;;;;;12.60;99.90;;;;;;5028814;28;19913;-61
2022/11/09 03:02:29;;;;;;;;;;;12.70;99.90;;;;;;5027680;28;20010;-62
2022/11/09 03:04:55;;;;;;;;;;;12.70;99.90;;;;;;5028239;28;20329;-61
2022/11/09 03:07:20;;;;;;;;;;;12.70;99.90;;;;;;5029763;28;19920;-62
2022/11/09 03:09:46;;;;;;;;;;;12.60;99.90;;;;;;5027480;28;20011;-61
2022/11/09 03:12:29;;;;;;;;;;;12.50;99.90;;;;;;5029137;28;20335;-62
2022/11/09 03:14:59;;;;;;;;;;;12.50;99.90;;;;;;5021247;28;20380;-61
2022/11/09 03:17:25;;;;;;;;;;;12.70;99.90;;;;;;5027611;28;19960;-61
2022/11/09 03:19:50;;;;;;;;;;;12.70;99.90;;;;;;5029055;28;19975;-61
2022/11/09 03:22:16;;;;;;;;;;;12.70;99.90;;;;;;5032113;28;19936;-61
2022/11/09 03:24:41;;;;;;;;;;;12.70;99.90;;;;;;5029761;28;20463;-61
2022/11/09 03:27:07;;;;;;;;;;;12.60;99.90;;;;;;5032952;28;20373;-61
2022/11/09 03:29:33;;;;;;;;;;;12.70;99.90;;;;;;5027440;28;20203;-61
2022/11/09 03:31:58;;;;;;;;;;;12.60;99.90;;;;;;5032235;28;20000;-61
2022/11/09 03:34:24;;;;;;;;;;;12.60;99.90;;;;;;5025328;28;19924;-61
2022/11/09 03:36:49;;;;;;;;;;;12.60;99.90;;;;;;5032668;28;20015;-61
2022/11/09 03:39:15;;;;;;;;;;;12.60;99.90;;;;;;5032735;28;19920;-61
2022/11/09 03:41:40;;;;;;;;;;;12.60;99.90;;;;;;5025806;28;20027;-61
2022/11/09 03:44:06;;;;;;;;;;;12.70;99.90;;;;;;5031415;28;19913;-61
2022/11/09 03:46:31;;;;;;;;;;;12.80;99.90;;;;;;5030815;28;19984;-61
2022/11/09 03:48:57;;;;;;;;;;;12.70;99.90;;;;;;5032297;28;19913;-61
2022/11/09 03:51:23;;;;;;;;;;;12.60;99.90;;;;;;5032049;28;20356;-61
2022/11/09 03:53:48;;;;;;;;;;;12.70;99.90;;;;;;5027521;28;19913;-61
2022/11/09 03:56:14;;;;;;;;;;;12.70;99.90;;;;;;5032311;28;19966;-62
2022/11/09 03:58:39;;;;;;;;;;;12.70;99.90;;;;;;5030489;28;20364;-61
2022/11/09 04:01:05;;;;;;;;;;;12.70;99.90;;;;;;5031904;28;19913;-61
2022/11/09 04:03:46;;;;;;;;;;;12.60;99.90;;;;;;5029023;28;19976;-61
2022/11/09 04:06:11;;;;;;;;;;;12.50;99.90;;;;;;5032165;28;19948;-69
2022/11/09 04:08:37;;;;;;;;;;;12.20;99.90;;;;;;5030678;28;20002;-72
2022/11/09 04:11:02;;;;;;;;;;;11.90;99.90;;;;;;5020122;28;19913;-70
2022/11/09 04:13:28;;;;;;;;;;;11.80;99.90;;;;;;5030050;28;20388;-70
2022/11/09 04:15:53;;;;;;;;;;;11.60;99.90;;;;;;5022417;28;19921;-66
2022/11/09 04:18:19;;;;;;;;;;;11.40;99.90;;;;;;5032143;28;19920;-75
2022/11/09 04:20:44;;;;;;;;;;;11.30;99.90;;;;;;5027616;28;19921;-65
2022/11/09 04:23:11;;;;;;;;;;;11.30;99.90;;;;;;5029717;28;19912;-77
2022/11/09 04:25:38;;;;;;;;;;;11.20;99.90;;;;;;5030421;28;20015;-73
2022/11/09 04:28:04;;;;;;;;;;;11.20;99.90;;;;;;5031319;28;19910;-70
2022/11/09 04:30:31;;;;;;;;;;;11.20;99.90;;;;;;5027349;28;20023;-68
2022/11/09 04:32:57;;;;;;;;;;;11.20;99.90;;;;;;5027159;28;19920;-67
2022/11/09 04:35:23;;;;;;;;;;;11.20;99.90;;;;;;5030907;28;19917;-66
2022/11/09 04:37:56;;;;;;;;;;;11.20;99.90;;;;;;5029881;28;20365;-65
2022/11/09 04:40:22;;;;;;;;;;;11.30;99.90;;;;;;5031014;28;19936;-65
2022/11/09 04:42:48;;;;;;;;;;;11.40;99.90;;;;;;5027320;28;20395;-64
2022/11/09 04:45:13;;;;;;;;;;;11.50;99.90;;;;;;5031640;28;19921;-64
2022/11/09 04:47:39;;;;;;;;;;;11.50;99.90;;;;;;5029833;28;19917;-63
2022/11/09 04:50:05;;;;;;;;;;;11.50;99.90;;;;;;5031535;28;19920;-64
2022/11/09 04:52:31;;;;;;;;;;;11.70;99.90;;;;;;5028530;28;20277;-64
2022/11/09 04:57:59;;;;;;;;;;;12.00;99.90;;;;;;5025167;28;19928;-70
2022/11/09 05:00:26;;;;;;;;;;;12.00;99.90;;;;;;5019290;28;19914;-68
2022/11/09 05:02:51;;;;;;;;;;;12.00;99.90;;;;;;5025921;28;19979;-67
2022/11/09 05:05:17;;;;;;;;;;;11.90;99.90;;;;;;5029944;28;19913;-66
2022/11/09 05:07:42;;;;;;;;;;;11.80;99.90;;;;;;5029394;28;19920;-65
2022/11/09 05:10:08;;;;;;;;;;;11.80;99.90;;;;;;5031150;28;20153;-64
2022/11/09 05:12:33;;;;;;;;;;;11.80;99.90;;;;;;5028632;28;19921;-64
2022/11/09 05:14:59;;;;;;;;;;;11.90;99.90;;;;;;5025427;28;19921;-64
2022/11/09 05:17:24;;;;;;;;;;;12.00;99.90;;;;;;5029393;28;20361;-64
2022/11/09 05:19:50;;;;;;;;;;;12.00;99.90;;;;;;5030996;28;19958;-64
2022/11/09 05:25:00;;;;;;;;;;;12.20;99.90;;;;;;5023727;28;19920;-63
2022/11/09 05:27:25;;;;;;;;;;;12.10;99.90;;;;;;5028477;28;19917;-63
2022/11/09 05:29:51;;;;;;;;;;;12.10;99.90;;;;;;5029629;28;19913;-62
2022/11/09 05:32:17;;;;;;;;;;;12.10;99.90;;;;;;5024146;28;19920;-62
2022/11/09 05:34:42;;;;;;;;;;;12.00;99.90;;;;;;5027844;28;20000;-62
2022/11/09 05:37:08;;;;;;;;;;;12.00;99.90;;;;;;5030720;28;20263;-63
2022/11/09 05:39:33;;;;;;;;;;;11.90;99.90;;;;;;5028620;28;20308;-63
2022/11/09 05:41:59;;;;;;;;;;;12.00;99.90;;;;;;5029517;28;19921;-63
2022/11/09 05:44:24;;;;;;;;;;;12.00;99.90;;;;;;5028155;28;19920;-62
2022/11/09 05:46:50;;;;;;;;;;;12.10;99.90;;;;;;5030257;28;19944;-62
2022/11/09 05:49:15;;;;;;;;;;;12.20;99.90;;;;;;5030257;28;19913;-62
2022/11/09 05:51:41;;;;;;;;;;;12.30;99.90;;;;;;5028013;28;19913;-62
2022/11/09 05:57:09;;;;;;;;;;;11.90;99.90;;;;;;5024852;28;19967;-65
2022/11/09 05:59:35;;;;;;;;;;;10.80;99.90;;;;;;5028209;28;19917;-77
2022/11/09 06:02:01;;;;;;;;;;;10.50;99.90;;;;;;5020253;28;19936;-74
2022/11/09 06:04:26;;;;;;;;;;;10.40;99.90;;;;;;5028363;28;19913;-73
2022/11/09 06:06:52;;;;;;;;;;;10.40;99.90;;;;;;5030150;28;20365;-76
2022/11/09 06:09:17;;;;;;;;;;;10.30;99.90;;;;;;5030059;28;19967;-78
2022/11/09 06:11:43;;;;;;;;;;;10.30;99.90;;;;;;5026789;28;19913;-76
2022/11/09 06:14:08;;;;;;;;;;;10.30;99.90;;;;;;5023450;28;19925;-74
2022/11/09 06:16:34;;;;;;;;;;;10.30;99.90;;;;;;5023611;28;20389;-73
2022/11/09 06:19:00;;;;;;;;;;;10.30;99.90;;;;;;5029965;28;19936;-70
2022/11/09 06:21:26;;;;;;;;;;;10.30;99.90;;;;;;5025986;28;20419;-66
2022/11/09 06:23:52;;;;;;;;;;;10.30;99.90;;;;;;5029575;28;19960;-68
2022/11/09 06:26:17;;;;;;;;;;;10.30;99.90;;;;;;5023982;28;19913;-66
2022/11/09 06:28:43;;;;;;;;;;;10.40;99.90;;;;;;5020660;28;19914;-66
2022/11/09 06:31:10;;;;;;;;;;;10.40;99.90;;;;;;5027169;28;19924;-66
2022/11/09 06:33:36;;;;;;;;;;;10.40;99.90;;;;;;5025534;28;20012;-65
2022/11/09 06:36:02;;;;;;;;;;;10.50;99.90;;;;;;5024614;28;20012;-66
2022/11/09 06:38:27;;;;;;;;;;;10.50;99.90;;;;;;5024218;28;19913;-65
2022/11/09 06:40:54;;;;;;;;;;;10.50;99.90;;;;;;5022271;28;19917;-64
2022/11/09 06:43:19;;;;;;;;;;;10.60;99.90;;;;;;5026097;28;20026;-64
2022/11/09 06:45:45;;;;;;;;;;;10.60;99.90;;;;;;5022779;28;19929;-64
2022/11/09 06:48:12;;;;;;;;;;;10.60;99.90;;;;;;5028256;28;20249;-64
2022/11/09 06:50:38;;;;;;;;;;;10.70;99.90;;;;;;5027338;28;19913;-64
2022/11/09 06:53:05;;;;;;;;;;;10.70;99.90;;;;;;5024052;28;19917;-64
2022/11/09 06:55:31;;;;;;;;;;;10.70;99.90;;;;;;5027312;28;20012;-64
2022/11/09 06:57:57;;;;;;;;;;;10.80;99.90;;;;;;5023092;28;19920;-63
2022/11/09 07:00:23;;;;;;;;;;;10.90;99.90;;;;;;5033195;28;19909;-64
2022/11/09 07:02:49;;;;;;;;;;;10.90;99.90;;;;;;5029242;28;19923;-64
2022/11/09 07:05:15;;;;;;;;;;;11.00;99.90;;;;;;5033223;28;20004;-63
2022/11/09 07:07:40;;;;;;;;;;;11.00;99.90;;;;;;5031415;28;19931;-63
2022/11/09 07:13:10;;;;;;;;;;;11.20;99.90;;;;;;5031586;28;19919;-70
2022/11/09 07:15:36;;;;;;;;;;;11.00;99.90;;;;;;5026258;28;19921;-77
2022/11/09 07:18:02;;;;;;;;;;;10.70;99.90;;;;;;5034684;28;19920;-75
2022/11/09 07:20:28;;;;;;;;;;;10.50;99.90;;;;;;5028688;28;20360;-72
2022/11/09 07:22:54;;;;;;;;;;;10.40;99.90;;;;;;5033055;28;19914;-71
2022/11/09 07:25:20;;;;;;;;;;;10.30;99.90;;;;;;5032714;28;20441;-69
2022/11/09 07:27:45;;;;;;;;;;;10.30;99.90;;;;;;5031220;28;19945;-69
2022/11/09 07:30:11;;;;;;;;;;;10.30;99.90;;;;;;5031292;28;20315;-68
2022/11/09 07:32:37;;;;;;;;;;;10.20;99.90;;;;;;5029502;28;20280;-68
2022/11/09 07:35:03;;;;;;;;;;;10.30;99.90;;;;;;5032277;28;19914;-67
2022/11/09 07:37:29;;;;;;;;;;;10.40;99.90;;;;;;5030529;28;19967;-64
2022/11/09 07:39:55;;;;;;;;;;;10.50;99.90;;;;;;5032866;28;19948;-65
2022/11/09 07:42:20;;;;;;;;;;;10.40;99.90;;;;;;5032365;28;19936;-64
2022/11/09 07:44:46;;;;;;;;;;;10.40;99.90;;;;;;5028617;28;19913;-65
2022/11/09 07:47:11;;;;;;;;;;;10.40;99.90;;;;;;5032581;28;20365;-64
2022/11/09 07:49:37;;;;;;;;;;;10.40;99.90;;;;;;5029514;28;19913;-62
2022/11/09 07:52:03;;;;;;;;;;;10.40;99.90;;;;;;5025852;28;19920;-63
2022/11/09 07:54:28;;;;;;;;;;;10.50;99.90;;;;;;5030208;28;19999;-62
2022/11/09 07:56:54;;;;;;;;;;;10.50;99.90;;;;;;5032331;28;19928;-63
2022/11/09 07:59:20;;;;;;;;;;;10.50;99.90;;;;;;5031802;28;19927;-63
2022/11/09 08:01:45;;;;;;;;;;;10.40;99.90;;;;;;5030265;28;19944;-63
2022/11/09 08:04:11;;;;;;;;;;;10.30;99.90;;;;;;5032022;28;19913;-64
2022/11/09 08:06:36;;;;;;;;;;;10.30;99.90;;;;;;5029237;28;19917;-62
2022/11/09 08:09:02;;;;;;;;;;;10.30;99.90;;;;;;5030927;28;19920;-63
2022/11/09 08:11:28;;;;;;;;;;;10.40;99.90;;;;;;5029696;28;19913;-64
2022/11/09 08:13:54;;;;;;;;;;;10.50;99.90;;;;;;5031355;28;19917;-63
2022/11/09 08:16:20;;;;;;;;;;;10.60;99.90;;;;;;5031593;28;20312;-63
2022/11/09 08:18:45;;;;;;;;;;;10.60;99.90;;;;;;5029134;28;20388;-63
2022/11/09 08:21:11;;;;;;;;;;;10.70;99.90;;;;;;5027170;28;19913;-63
2022/11/09 08:23:36;;;;;;;;;;;10.70;99.90;;;;;;5021965;28;20044;-62
2022/11/09 08:26:03;;;;;;;;;;;10.70;99.90;;;;;;5025369;28;19925;-63
2022/11/09 08:28:29;;;;;;;;;;;10.60;99.90;;;;;;5016994;28;19913;-65
2022/11/09 08:30:56;;;;;;;;;;;10.70;99.90;;;;;;5029232;28;19920;-64
2022/11/09 08:33:21;;;;;;;;;;;10.70;99.90;;;;;;5030755;28;19913;-63
2022/11/09 08:35:47;;;;;;;;;;;10.80;99.90;;;;;;5022382;28;20385;-65
2022/11/09 08:38:12;;;;;;;;;;;10.70;99.90;;;;;;5030885;28;20376;-66
2022/11/09 08:40:38;;;;;;;;;;;10.80;99.90;;;;;;5019564;28;19914;-65
2022/11/09 08:43:04;;;;;;;;;;;10.80;99.90;;;;;;5029934;28;20423;-64
2022/11/09 08:45:31;;;;;;;;;;;11.00;99.90;;;;;;5028234;28;19921;-65
2022/11/09 08:47:58;;;;;;;;;;;11.00;99.90;;;;;;5030465;28;19913;-65
2022/11/09 08:50:24;;;;;;;;;;;11.00;99.90;;;;;;5030690;28;19918;-65
2022/11/09 08:52:49;;;;;;;;;;;11.00;99.90;;;;;;5029011;28;20004;-66
2022/11/09 08:55:15;;;;;;;;;;;11.00;99.90;;;;;;5030549;28;19924;-65
2022/11/09 08:57:40;;;;;;;;;;;11.00;99.90;;;;;;5027117;28;19959;-65
2022/11/09 09:00:06;;;;;;;;;;;11.00;99.90;;;;;;5027560;28;20019;-65
2022/11/09 09:02:32;;;;;;;;;;;11.00;99.90;;;;;;5028652;28;19921;-66
2022/11/09 09:04:57;;;;;;;;;;;11.10;99.90;;;;;;5030638;28;19966;-66
2022/11/09 09:07:23;;;;;;;;;;;11.10;99.90;;;;;;5030538;28;19913;-66
2022/11/09 09:09:49;;;;;;;;;;;11.10;99.90;;;;;;5028439;28;19913;-66
2022/11/09 09:12:14;;;;;;;;;;;11.20;99.90;;;;;;5030434;28;19940;-66
2022/11/09 09:14:40;;;;;;;;;;;11.20;99.90;;;;;;5026287;28;19913;-66
2022/11/09 09:17:05;;;;;;;;;;;11.20;99.90;;;;;;5030303;28;19921;-65
2022/11/09 09:19:31;;;;;;;;;;;11.30;99.90;;;;;;5028448;28;20012;-64
2022/11/09 09:21:57;;;;;;;;;;;11.30;99.90;;;;;;5030308;28;20013;-65
2022/11/09 09:24:22;;;;;;;;;;;11.30;99.90;;;;;;5030357;28;19913;-63
2022/11/09 09:26:48;;;;;;;;;;;11.40;99.90;;;;;;5026343;28;19967;-64
2022/11/09 09:29:14;;;;;;;;;;;11.40;99.90;;;;;;5029634;28;19913;-64
2022/11/09 09:31:40;;;;;;;;;;;11.40;99.90;;;;;;5027956;28;20407;-65
2022/11/09 09:34:05;;;;;;;;;;;11.50;99.90;;;;;;5027298;28;20011;-64
2022/11/09 09:36:31;;;;;;;;;;;11.50;99.90;;;;;;5027446;28;19964;-64
2022/11/09 09:38:57;;;;;;;;;;;11.60;99.90;;;;;;5030030;28;19983;-64
2022/11/09 09:41:26;;;;;;;;;;;11.70;99.90;;;;;;5029930;28;19913;-65
2022/11/09 09:43:53;;;;;;;;;;;11.80;99.90;;;;;;5021337;28;19913;-64
2022/11/09 09:46:37;;;;;;;;;;;11.80;99.90;;;;;;5021378;28;20019;-64
2022/11/09 09:49:05;;;;;;;;;;;11.80;99.90;;;;;;5023704;28;19924;-64
2022/11/09 09:51:34;;;;;;;;;;;11.90;99.90;;;;;;5019974;28;19913;-65
2022/11/09 09:54:10;;;;;;;;;;;12.00;99.90;;;;;;5026107;28;19917;-63
2022/11/09 09:56:38;;;;;;;;;;;12.00;99.90;;;;;;5027599;28;19921;-63
2022/11/09 09:59:17;;;;;;;;;;;12.10;99.90;;;;;;5029464;28;19959;-63
2022/11/09 10:01:43;;;;;;;;;;;12.20;99.90;;;;;;5026457;28;19920;-62
2022/11/09 10:04:12;;;;;;;;;;;12.20;99.90;;;;;;5023451;28;20447;-62
2022/11/09 10:06:37;;;;;;;;;;;12.20;99.90;;;;;;5027440;28;19913;-64
2022/11/09 10:09:21;;;;;;;;;;;12.30;99.90;;;;;;5029356;28;20327;-67
2022/11/09 10:11:59;;;;;;;;;;;12.40;99.90;;;;;;5020560;28;19966;-60
2022/11/09 10:14:51;;;;;;;;;;;12.50;99.90;;;;;;5027720;28;20008;-63
2022/11/09 10:17:16;;;;;;;;;;;12.50;99.90;;;;;;5021100;28;19921;-66
2022/11/09 10:20:07;;;;;;;;;;;12.50;99.90;;;;;;5025781;28;19913;-66
2022/11/09 10:22:39;;;;;;;;;;;12.50;99.90;;;;;;5026914;28;19913;-69
2022/11/09 10:25:34;;;;;;;;;;;12.60;99.90;;;;;;5023419;28;19956;-68
2022/11/09 10:28:01;;;;;;;;;;;12.60;99.90;;;;;;5021633;28;20013;-69
2022/11/09 10:30:28;;;;;;;;;;;12.70;99.90;;;;;;5026549;28;20348;-67
2022/11/09 10:32:55;;;;;;;;;;;12.70;99.90;;;;;;5015740;28;19944;-67
2022/11/09 10:35:26;;;;;;;;;;;12.70;99.90;;;;;;5022829;28;19968;-67
2022/11/09 10:37:53;;;;;;;;;;;12.70;99.90;;;;;;5025458;28;20379;-67
2022/11/09 10:40:19;;;;;;;;;;;12.80;99.90;;;;;;5037372;28;19917;-67
2022/11/09 10:42:48;;;;;;;;;;;12.80;99.90;;;;;;5022551;28;19920;-67
2022/11/09 10:45:20;;;;;;;;;;;12.90;99.90;;;;;;5023849;28;19925;-69
2022/11/09 10:47:46;;;;;;;;;;;12.90;99.90;;;;;;5022717;28;19924;-67
2022/11/09 10:50:30;;;;;;;;;;;13.00;99.90;;;;;;5023318;28;19928;-67
2022/11/09 10:53:06;;;;;;;;;;;13.00;99.90;;;;;;5023366;28;20364;-68
2022/11/09 10:55:35;;;;;;;;;;;13.10;99.90;;;;;;5024503;28;19921;-68
2022/11/09 10:58:19;;;;;;;;;;;13.30;99.90;;;;;;5023241;28;19913;-67
2022/11/09 11:01:04;;;;;;;;;;;13.40;99.90;;;;;;5022511;28;20281;-68
2022/11/09 11:03:34;;;;;;;;;;;13.50;99.90;;;;;;5013654;28;19925;-67
2022/11/09 11:06:01;;;;;;;;;;;13.70;99.90;;;;;;5023784;28;20007;-68
2022/11/09 11:08:41;;;;;;;;;;;14.20;99.90;;;;;;5020997;28;19913;-68
2022/11/09 11:11:26;;;;;;;;;;;14.60;99.90;;;;;;5024952;28;19913;-67
2022/11/09 11:14:05;;;;;;;;;;;15.00;99.90;;;;;;5024136;28;20007;-68
2022/11/09 11:16:32;;;;;;;;;;;15.30;99.90;;;;;;5023272;28;20006;-67
2022/11/09 11:18:58;;;;;;;;;;;15.30;99.90;;;;;;5022838;28;19913;-67
2022/11/09 11:21:24;;;;;;;;;;;15.20;99.90;;;;;;5021570;28;19920;-68
2022/11/09 11:24:16;;;;;;;;;;;15.30;99.90;;;;;;5018914;28;19914;-67
2022/11/09 11:26:45;;;;;;;;;;;15.30;99.90;;;;;;5014928;28;20369;-66
2022/11/09 11:29:17;;;;;;;;;;;15.60;99.90;;;;;;5026260;28;20004;-66
2022/11/09 11:31:43;;;;;;;;;;;16.00;99.90;;;;;;5026771;28;19920;-67
2022/11/09 11:34:12;;;;;;;;;;;15.80;99.90;;;;;;5028173;28;19913;-67
2022/11/09 11:36:48;;;;;;;;;;;16.20;99.90;;;;;;5025157;28;19928;-67
2022/11/09 11:39:32;;;;;;;;;;;16.10;99.90;;;;;;5028724;28;19917;-68
2022/11/09 11:42:07;;;;;;;;;;;16.20;99.90;;;;;;5026388;28;19949;-68
2022/11/09 11:44:32;;;;;;;;;;;16.40;99.90;;;;;;5028731;28;20351;-68
2022/11/09 11:47:07;;;;;;;;;;;16.50;99.90;;;;;;5031991;28;19921;-67
2022/11/09 11:49:45;;;;;;;;;;;16.60;99.90;;;;;;5030151;28;19920;-67
2022/11/09 11:52:14;;;;;;;;;;;16.80;99.90;;;;;;5032193;28;20380;-67
2022/11/09 11:54:57;;;;;;;;;;;16.90;99.90;;;;;;5029812;28;19936;-67
2022/11/09 11:57:37;;;;;;;;;;;17.00;99.90;;;;;;5030758;28;19921;-66
2022/11/09 12:00:05;;;;;;;;;;;16.90;99.90;;;;;;5020128;28;19913;-67
2022/11/09 12:02:42;;;;;;;;;;;16.90;99.90;;;;;;5030490;28;19997;-66
2022/11/09 12:05:26;;;;;;;;;;;17.20;99.90;;;;;;5030985;28;19913;-66
2022/11/09 12:07:58;;;;;;;;;;;17.40;99.90;;;;;;5024873;28;19925;-66
2022/11/09 12:10:35;;;;;;;;;;;17.10;99.90;;;;;;5028150;28;19913;-68
2022/11/09 12:13:11;;;;;;;;;;;17.60;99.90;;;;;;5026368;28;19913;-67
2022/11/09 12:15:51;;;;;;;;;;;17.50;99.90;;;;;;5027811;28;20014;-64
2022/11/09 12:18:25;;;;;;;;;;;17.60;99.90;;;;;;5031756;28;20314;-67
2022/11/09 12:20:54;;;;;;;;;;;17.80;99.90;;;;;;5030174;28;19913;-67
2022/11/09 12:23:26;;;;;;;;;;;18.10;99.90;;;;;;5029909;28;19913;-67
2022/11/09 12:26:07;;;;;;;;;;;18.40;99.90;;;;;;5027430;28;19924;-67
2022/11/09 12:28:36;;;;;;;;;;;18.10;99.90;;;;;;5029031;28;20035;-67
2022/11/09 12:31:26;;;;;;;;;;;18.10;99.90;;;;;;5031372;28;19913;-67
2022/11/09 12:34:09;;;;;;;;;;;18.00;99.90;;;;;;5029174;28;19916;-67
2022/11/09 12:36:41;;;;;;;;;;;18.00;99.90;;;;;;5028290;28;19928;-67
2022/11/09 12:39:17;;;;;;;;;;;17.90;99.90;;;;;;5030962;28;20067;-68
2022/11/09 12:41:43;;;;;;;;;;;18.40;99.90;;;;;;5022716;28;19920;-68
2022/11/09 12:44:12;;;;;;;;;;;18.10;99.90;;;;;;5027797;28;19913;-67
2022/11/09 12:46:41;;;;;;;;;;;17.90;99.90;;;;;;5028375;28;19921;-67
2022/11/09 12:49:14;;;;;;;;;;;18.30;99.90;;;;;;5028814;28;19913;-67
2022/11/09 12:51:39;;;;;;;;;;;18.30;99.90;;;;;;5029270;28;19913;-68
2022/11/09 12:54:10;;;;;;;;;;;18.40;99.90;;;;;;5029291;28;19967;-66
2022/11/09 12:56:39;;;;;;;;;;;18.60;99.90;;;;;;5022754;28;19924;-66
2022/11/09 12:59:20;;;;;;;;;;;18.00;99.90;;;;;;5024843;28;20323;-67
2022/11/09 13:01:48;;;;;;;;;;;17.90;99.90;;;;;;5020295;28;19914;-68
2022/11/09 13:04:16;;;;;;;;;;;18.50;99.90;;;;;;5025761;28;20265;-67
2022/11/09 13:07:01;;;;;;;;;;;18.80;99.90;;;;;;5018905;28;19913;-67
2022/11/09 13:09:27;;;;;;;;;;;18.50;99.90;;;;;;5019226;28;20005;-67
2022/11/09 13:11:53;;;;;;;;;;;18.90;99.90;;;;;;5021862;28;20004;-67
2022/11/09 13:14:21;;;;;;;;;;;18.90;99.90;;;;;;5025900;28;19913;-68
2022/11/09 13:16:57;;;;;;;;;;;19.30;99.90;;;;;;5028128;28;19929;-67
2022/11/09 13:19:36;;;;;;;;;;;19.60;99.90;;;;;;5027784;28;19914;-66
2022/11/09 13:22:11;;;;;;;;;;;19.60;99.90;;;;;;5030033;28;20361;-66
2022/11/09 13:24:48;;;;;;;;;;;19.80;99.90;;;;;;5022520;28;19942;-66
2022/11/09 13:27:32;;;;;;;;;;;19.50;99.90;;;;;;5025179;28;20012;-67
2022/11/09 13:30:01;;;;;;;;;;;19.10;99.90;;;;;;5028457;28;19913;-67
2022/11/09 13:32:28;;;;;;;;;;;18.20;99.90;;;;;;5028380;28;20365;-67
2022/11/09 13:34:57;;;;;;;;;;;18.90;99.90;;;;;;5030186;28;20340;-65
2022/11/09 13:37:41;;;;;;;;;;;19.10;99.90;;;;;;5030190;28;19957;-66
2022/11/09 13:40:25;;;;;;;;;;;19.10;99.90;;;;;;5026372;28;19917;-68
2022/11/09 13:42:56;;;;;;;;;;;19.40;99.90;;;;;;5023557;28;19920;-67
2022/11/09 13:45:33;;;;;;;;;;;19.30;99.90;;;;;;5025724;28;19921;-67
2022/11/09 13:47:59;;;;;;;;;;;19.40;99.90;;;;;;5028562;28;19917;-67
2022/11/09 13:50:26;;;;;;;;;;;19.40;99.90;;;;;;5030023;28;19920;-67
2022/11/09 13:52:53;;;;;;;;;;;19.60;99.90;;;;;;5026571;28;19928;-66
2022/11/09 13:55:38;;;;;;;;;;;20.00;99.90;;;;;;5030126;28;19924;-67
2022/11/09 13:58:10;;;;;;;;;;;19.90;99.90;;;;;;5027131;28;19917;-67
2022/11/09 14:00:36;;;;;;;;;;;19.70;99.90;;;;;;5028329;28;19914;-66
2022/11/09 14:03:22;;;;;;;;;;;19.70;99.90;;;;;;5028036;28;19913;-66
2022/11/09 14:05:56;;;;;;;;;;;19.30;99.90;;;;;;5017908;28;19972;-66
2022/11/09 14:08:23;;;;;;;;;;;19.70;99.90;;;;;;5028091;28;20008;-68
2022/11/09 14:10:54;;;;;;;;;;;18.90;99.90;;;;;;5027749;28;19913;-68
2022/11/09 14:13:43;;;;;;;;;;;19.00;99.90;;;;;;5024846;28;19933;-64
2022/11/09 14:16:29;;;;;;;;;;;19.20;99.90;;;;;;5023986;28;19921;-66
2022/11/09 14:19:15;;;;;;;;;;;19.30;99.90;;;;;;5022188;28;19917;-65
2022/11/09 14:21:43;;;;;;;;;;;19.00;99.90;;;;;;5023808;28;19917;-66
2022/11/09 14:24:15;;;;;;;;;;;18.90;99.90;;;;;;5029170;28;19913;-66
2022/11/09 14:26:57;;;;;;;;;;;19.20;99.90;;;;;;5027621;28;19925;-65
2022/11/09 14:29:23;;;;;;;;;;;19.30;99.90;;;;;;5029400;28;19932;-67
2022/11/09 14:31:49;;;;;;;;;;;19.70;99.90;;;;;;5027813;28;19913;-66
2022/11/09 14:34:15;;;;;;;;;;;19.80;99.90;;;;;;5028768;28;20258;-67
2022/11/09 14:36:41;;;;;;;;;;;19.90;99.90;;;;;;5027674;28;19925;-66